Time;durP1;ratioP1;P1;durP2;ratioP2;P2;SDS_P1;SDS_P2;PMS_P1;PMS_P2;Temp;Humidity;BMP_temperature;BMP_pressure;BME280_temperature;BME280_humidity;BME280_pressure;Samples;Min_cycle;Max_cycle;Signal;HPM_P1;HPM_P2
2023/12/29 00:02:00;;;;;;;6.37;2.90;;;;;;;;;;4961848;28;88627;-66
2023/12/29 00:04:31;;;;;;;12.80;3.47;;;;;;;;;;4957649;28;89959;-66
2023/12/29 00:07:02;;;;;;;5.00;2.90;;;;;;;;;;4969826;28;88444;-66
2023/12/29 00:09:38;;;;;;;6.20;3.23;;;;;;;;;;4964763;28;87618;-66
2023/12/29 00:12:08;;;;;;;7.13;3.80;;;;;;;;;;4957153;28;89813;-67
2023/12/29 00:14:38;;;;;;;4.80;2.77;;;;;;;;;;4956885;28;89260;-66
2023/12/29 00:17:08;;;;;;;4.57;3.53;;;;;;;;;;4970627;28;88784;-66
2023/12/29 00:19:37;;;;;;;9.40;3.70;;;;;;;;;;4947125;28;87382;-67
2023/12/29 00:22:06;;;;;;;6.40;3.50;;;;;;;;;;4960761;28;89496;-66
2023/12/29 00:24:39;;;;;;;7.37;3.70;;;;;;;;;;4968371;28;89086;-66
2023/12/29 00:27:10;;;;;;;4.53;3.27;;;;;;;;;;4974437;28;87807;-66
2023/12/29 00:29:39;;;;;;;3.80;3.20;;;;;;;;;;4959638;28;88198;-66
2023/12/29 00:32:07;;;;;;;7.33;3.90;;;;;;;;;;4961461;28;89651;-65
2023/12/29 00:34:38;;;;;;;7.03;3.97;;;;;;;;;;4959572;28;89204;-66
2023/12/29 00:37:08;;;;;;;7.83;3.80;;;;;;;;;;4959686;28;88262;-65
2023/12/29 00:39:39;;;;;;;4.50;3.47;;;;;;;;;;4960262;28;87641;-66
2023/12/29 00:42:08;;;;;;;5.50;4.23;;;;;;;;;;4960889;28;89785;-66
2023/12/29 00:44:37;;;;;;;11.13;3.70;;;;;;;;;;4977423;28;89346;-66
2023/12/29 00:47:08;;;;;;;8.73;4.00;;;;;;;;;;4976894;28;89112;-66
2023/12/29 00:49:42;;;;;;;7.07;4.07;;;;;;;;;;4976859;28;87623;-66
2023/12/29 00:52:11;;;;;;;6.03;3.80;;;;;;;;;;4949130;28;89505;-66
2023/12/29 00:54:42;;;;;;;6.73;4.07;;;;;;;;;;4939507;28;89079;-66
2023/12/29 00:57:11;;;;;;;6.03;4.20;;;;;;;;;;4957696;28;89785;-66
2023/12/29 00:59:39;;;;;;;6.60;3.93;;;;;;;;;;4960286;28;87496;-66
2023/12/29 01:02:09;;;;;;;6.37;4.00;;;;;;;;;;4959870;28;89798;-66
2023/12/29 01:04:39;;;;;;;8.17;3.67;;;;;;;;;;4959193;28;89023;-66
2023/12/29 01:07:12;;;;;;;8.30;4.03;;;;;;;;;;4960071;28;88941;-66
2023/12/29 01:09:42;;;;;;;7.07;3.83;;;;;;;;;;4959823;28;87705;-66
2023/12/29 01:12:11;;;;;;;5.57;3.70;;;;;;;;;;4960235;28;89729;-66
2023/12/29 01:14:40;;;;;;;6.33;3.77;;;;;;;;;;4976500;28;89107;-67
2023/12/29 01:17:12;;;;;;;7.83;3.67;;;;;;;;;;4970187;28;88877;-66
2023/12/29 01:19:42;;;;;;;7.07;4.33;;;;;;;;;;4966638;28;88040;-67
2023/12/29 01:22:11;;;;;;;7.87;3.87;;;;;;;;;;4974782;28;89954;-66
2023/12/29 01:24:39;;;;;;;4.77;2.63;;;;;;;;;;4973237;28;89249;-66
2023/12/29 01:27:17;;;;;;;6.80;3.90;;;;;;;;;;4969012;28;88195;-67
2023/12/29 01:29:45;;;;;;;6.00;3.10;;;;;;;;;;4962283;28;87512;-67
2023/12/29 01:32:13;;;;;;;7.37;3.23;;;;;;;;;;4966943;28;89678;-66
2023/12/29 01:34:45;;;;;;;6.00;3.80;;;;;;;;;;4975289;28;89107;-66
2023/12/29 01:37:14;;;;;;;6.67;4.00;;;;;;;;;;4962088;28;88883;-66
2023/12/29 01:39:44;;;;;;;9.63;4.40;;;;;;;;;;4962121;28;87546;-66
2023/12/29 01:42:12;;;;;;;6.93;3.63;;;;;;;;;;4961913;28;89752;-66
2023/12/29 01:44:43;;;;;;;8.43;4.33;;;;;;;;;;4974956;28;93205;-65
2023/12/29 01:47:13;;;;;;;4.80;3.43;;;;;;;;;;4978318;28;89902;-66
2023/12/29 01:49:41;;;;;;;6.73;4.47;;;;;;;;;;4969419;28;87497;-66
2023/12/29 01:52:11;;;;;;;7.13;4.53;;;;;;;;;;4970214;28;89645;-67
2023/12/29 01:54:42;;;;;;;6.53;4.17;;;;;;;;;;4969803;28;89025;-66
2023/12/29 01:57:11;;;;;;;8.70;4.80;;;;;;;;;;4962088;28;87851;-66
2023/12/29 01:59:39;;;;;;;8.70;4.60;;;;;;;;;;4964487;28;87666;-66
2023/12/29 02:02:09;;;;;;;7.73;4.50;;;;;;;;;;4963801;28;88527;-66
2023/12/29 02:04:37;;;;;;;7.33;3.83;;;;;;;;;;4969414;28;89190;-66
2023/12/29 02:07:07;;;;;;;7.27;4.40;;;;;;;;;;4979794;28;91683;-67
2023/12/29 02:09:38;;;;;;;7.13;3.87;;;;;;;;;;4976760;28;88580;-65
2023/12/29 02:12:08;;;;;;;6.30;4.30;;;;;;;;;;4975952;28;89721;-65
2023/12/29 02:14:37;;;;;;;4.57;3.63;;;;;;;;;;4964372;28;88182;-66
2023/12/29 02:17:09;;;;;;;10.03;5.43;;;;;;;;;;4977158;28;88724;-66
2023/12/29 02:19:41;;;;;;;7.47;3.53;;;;;;;;;;4968521;28;87672;-66
2023/12/29 02:22:11;;;;;;;5.27;3.43;;;;;;;;;;4958444;28;88339;-66
2023/12/29 02:24:40;;;;;;;7.10;4.60;;;;;;;;;;4957961;28;89173;-66
2023/12/29 02:27:20;;;;;;;8.37;5.10;;;;;;;;;;4943048;28;89358;-66
2023/12/29 02:29:53;;;;;;;9.43;4.63;;;;;;;;;;4948279;28;87547;-65
2023/12/29 02:32:22;;;;;;;7.53;5.00;;;;;;;;;;4970157;28;89923;-66
2023/12/29 02:34:57;;;;;;;11.83;5.93;;;;;;;;;;4964347;28;90109;-66
2023/12/29 02:37:26;;;;;;;6.83;4.53;;;;;;;;;;4951619;28;90097;-66
2023/12/29 02:39:54;;;;;;;7.67;4.87;;;;;;;;;;4958101;28;87567;-66
2023/12/29 02:42:24;;;;;;;8.60;5.63;;;;;;;;;;4957609;28;89845;-66
2023/12/29 02:44:54;;;;;;;9.87;6.00;;;;;;;;;;4957898;28;89136;-66
2023/12/29 02:47:22;;;;;;;7.03;4.97;;;;;;;;;;4957732;28;88912;-66
2023/12/29 02:49:54;;;;;;;8.03;4.93;;;;;;;;;;4963020;28;87688;-66
2023/12/29 02:52:23;;;;;;;8.10;5.30;;;;;;;;;;4967595;28;89590;-66
2023/12/29 02:54:52;;;;;;;12.60;5.27;;;;;;;;;;4956981;28;89163;-66
2023/12/29 02:57:21;;;;;;;8.50;4.73;;;;;;;;;;4956601;28;88751;-66
2023/12/29 02:59:51;;;;;;;7.40;5.30;;;;;;;;;;4957933;28;88094;-66
2023/12/29 03:02:20;;;;;;;5.83;4.73;;;;;;;;;;4961575;28;89724;-66
2023/12/29 03:04:48;;;;;;;11.77;5.67;;;;;;;;;;4960284;28;88984;-66
2023/12/29 03:07:16;;;;;;;10.70;4.97;;;;;;;;;;4958960;28;88851;-66
2023/12/29 03:09:45;;;;;;;9.30;5.57;;;;;;;;;;4961170;28;87660;-66
2023/12/29 03:12:13;;;;;;;17.27;12.07;;;;;;;;;;4961105;28;89397;-65
2023/12/29 03:14:42;;;;;;;27.77;15.87;;;;;;;;;;4960327;28;89037;-68
2023/12/29 03:17:12;;;;;;;32.90;19.77;;;;;;;;;;4969876;28;89021;-67
2023/12/29 03:19:40;;;;;;;31.80;17.77;;;;;;;;;;4961684;28;87624;-68
2023/12/29 03:22:09;;;;;;;252.17;144.23;;;;;;;;;;4960582;28;89704;-74
2023/12/29 03:24:38;;;;;;;137.70;88.17;;;;;;;;;;4966081;28;90100;-74
2023/12/29 03:27:06;;;;;;;126.87;80.37;;;;;;;;;;4967381;28;90022;-67
2023/12/29 03:29:35;;;;;;;135.63;76.10;;;;;;;;;;4962905;28;87585;-67
2023/12/29 03:32:03;;;;;;;130.73;79.80;;;;;;;;;;4959768;28;88905;-67
2023/12/29 03:34:33;;;;;;;127.47;81.37;;;;;;;;;;4960424;28;89375;-67
2023/12/29 03:37:02;;;;;;;128.77;75.53;;;;;;;;;;4960233;28;88977;-66
2023/12/29 03:39:30;;;;;;;132.80;83.70;;;;;;;;;;4960415;28;87649;-67
2023/12/29 03:41:59;;;;;;;131.13;81.87;;;;;;;;;;4960494;28;89690;-66
2023/12/29 03:44:27;;;;;;;125.80;78.93;;;;;;;;;;4959530;28;88044;-70
2023/12/29 03:46:55;;;;;;;141.13;84.63;;;;;;;;;;4959976;28;89008;-69
2023/12/29 03:49:24;;;;;;;121.87;75.47;;;;;;;;;;4943631;28;88298;-69
2023/12/29 03:51:54;;;;;;;107.37;70.30;;;;;;;;;;4953765;28;89583;-70
2023/12/29 03:54:22;;;;;;;114.13;73.67;;;;;;;;;;4956697;28;89411;-71
2023/12/29 03:56:51;;;;;;;103.77;66.37;;;;;;;;;;4959017;28;88937;-70
2023/12/29 03:59:20;;;;;;;113.43;75.00;;;;;;;;;;4960820;28;87570;-71
2023/12/29 04:01:49;;;;;;;114.53;67.97;;;;;;;;;;4960723;28;89638;-71
2023/12/29 04:04:18;;;;;;;113.30;69.20;;;;;;;;;;4963613;28;89351;-70
2023/12/29 04:06:46;;;;;;;86.77;55.10;;;;;;;;;;4980448;28;88000;-71
2023/12/29 04:09:16;;;;;;;46.17;28.00;;;;;;;;;;4966381;28;88140;-70
2023/12/29 04:11:45;;;;;;;46.43;27.93;;;;;;;;;;4959989;28;89710;-69
2023/12/29 04:14:14;;;;;;;32.83;20.63;;;;;;;;;;4975306;28;89922;-70
2023/12/29 04:16:43;;;;;;;29.80;20.17;;;;;;;;;;4976935;28;89980;-71
2023/12/29 04:19:11;;;;;;;22.77;16.50;;;;;;;;;;4962746;28;87660;-72
2023/12/29 04:21:43;;;;;;;23.13;14.27;;;;;;;;;;4966959;28;89732;-71
2023/12/29 04:24:11;;;;;;;20.37;13.30;;;;;;;;;;4980037;28;89215;-71
2023/12/29 04:26:41;;;;;;;19.17;12.33;;;;;;;;;;4971294;28;89465;-70
2023/12/29 04:29:09;;;;;;;18.37;10.83;;;;;;;;;;4968758;28;87659;-71
2023/12/29 04:31:38;;;;;;;22.70;11.87;;;;;;;;;;4979594;28;91519;-70
2023/12/29 04:34:06;;;;;;;13.47;10.53;;;;;;;;;;4990846;28;88809;-69
2023/12/29 04:36:35;;;;;;;11.97;8.80;;;;;;;;;;4982575;28;90259;-69
2023/12/29 04:39:03;;;;;;;19.00;8.50;;;;;;;;;;4981151;28;89367;-70
2023/12/29 04:41:31;;;;;;;19.70;9.60;;;;;;;;;;4975003;28;92940;-71
2023/12/29 04:44:01;;;;;;;15.43;8.17;;;;;;;;;;4971482;28;89277;-70
2023/12/29 04:46:29;;;;;;;13.63;7.07;;;;;;;;;;4964034;28;88893;-70
2023/12/29 04:48:58;;;;;;;12.57;6.43;;;;;;;;;;4972338;28;87634;-71
2023/12/29 04:51:26;;;;;;;10.40;5.93;;;;;;;;;;4973070;28;89548;-70
2023/12/29 04:53:55;;;;;;;11.67;6.03;;;;;;;;;;4964934;28;87999;-70
2023/12/29 04:56:24;;;;;;;8.63;5.03;;;;;;;;;;4960443;28;89181;-70
2023/12/29 04:58:52;;;;;;;14.57;6.17;;;;;;;;;;4969016;28;87825;-71
2023/12/29 05:01:22;;;;;;;7.70;4.80;;;;;;;;;;4960243;28;89657;-72
2023/12/29 05:03:51;;;;;;;7.47;5.10;;;;;;;;;;4957835;28;90163;-71
2023/12/29 05:06:19;;;;;;;11.90;5.17;;;;;;;;;;4963849;28;89897;-71
2023/12/29 05:08:48;;;;;;;8.23;4.27;;;;;;;;;;4962662;28;87654;-71
2023/12/29 05:11:16;;;;;;;6.53;4.60;;;;;;;;;;4961500;28;90083;-71
2023/12/29 05:13:45;;;;;;;6.63;3.10;;;;;;;;;;4973833;28;89127;-71
2023/12/29 05:16:13;;;;;;;6.70;3.97;;;;;;;;;;4971288;28;88919;-71
2023/12/29 05:18:45;;;;;;;6.53;3.97;;;;;;;;;;4962065;28;87624;-71
2023/12/29 05:21:16;;;;;;;7.93;3.93;;;;;;;;;;4961446;28;89883;-71
2023/12/29 05:23:45;;;;;;;6.37;3.07;;;;;;;;;;4963324;28;88019;-71
2023/12/29 05:26:13;;;;;;;4.97;3.70;;;;;;;;;;4961462;28;88819;-72
2023/12/29 05:28:42;;;;;;;5.80;3.23;;;;;;;;;;4972002;28;88021;-72
2023/12/29 05:31:11;;;;;;;14.57;3.50;;;;;;;;;;4982729;28;89639;-72
2023/12/29 05:33:40;;;;;;;5.00;2.87;;;;;;;;;;4983034;28;89398;-71
2023/12/29 05:36:11;;;;;;;6.90;2.63;;;;;;;;;;5005440;28;87823;-71
2023/12/29 05:38:41;;;;;;;7.57;3.17;;;;;;;;;;5001708;28;86678;-71
2023/12/29 05:41:09;;;;;;;4.17;2.27;;;;;;;;;;4987200;28;88579;-71
2023/12/29 05:43:37;;;;;;;4.23;2.30;;;;;;;;;;4978842;28;89479;-70
2023/12/29 05:46:12;;;;;;;5.87;2.57;;;;;;;;;;4986972;28;87728;-70
2023/12/29 05:48:40;;;;;;;6.93;3.10;;;;;;;;;;4986620;28;86608;-70
2023/12/29 05:51:10;;;;;;;5.00;2.23;;;;;;;;;;4986433;28;88539;-70
2023/12/29 05:53:40;;;;;;;4.73;2.07;;;;;;;;;;4985500;28;88641;-71
2023/12/29 05:56:09;;;;;;;3.67;2.10;;;;;;;;;;4986192;28;88678;-70
2023/12/29 05:58:37;;;;;;;4.37;2.33;;;;;;;;;;5000876;28;86731;-70
2023/12/29 06:01:05;;;;;;;3.60;2.33;;;;;;;;;;4987866;28;88552;-71
2023/12/29 06:03:34;;;;;;;4.13;1.93;;;;;;;;;;4986718;28;88155;-70
2023/12/29 06:06:02;;;;;;;2.00;1.43;;;;;;;;;;4987208;28;87714;-70
2023/12/29 06:08:32;;;;;;;3.73;1.80;;;;;;;;;;4986480;28;86714;-71
2023/12/29 06:11:00;;;;;;;4.83;1.73;;;;;;;;;;4999333;28;88553;-70
2023/12/29 06:13:30;;;;;;;2.40;1.50;;;;;;;;;;4994655;28;87853;-70
2023/12/29 06:15:58;;;;;;;1.93;1.33;;;;;;;;;;4987454;28;87789;-72
2023/12/29 06:18:26;;;;;;;4.27;1.87;;;;;;;;;;4984746;28;87657;-71
2023/12/29 06:20:55;;;;;;;5.37;1.60;;;;;;;;;;4984686;28;87907;-70
2023/12/29 06:23:25;;;;;;;4.40;1.93;;;;;;;;;;4983067;28;88021;-70
2023/12/29 06:25:55;;;;;;;2.53;1.93;;;;;;;;;;4984320;28;89853;-70
2023/12/29 06:28:23;;;;;;;2.63;1.37;;;;;;;;;;4963043;28;87438;-69
2023/12/29 06:30:52;;;;;;;3.00;1.70;;;;;;;;;;4964316;28;89806;-69
2023/12/29 06:33:21;;;;;;;4.73;1.67;;;;;;;;;;4961876;28;89066;-71
2023/12/29 06:35:50;;;;;;;2.20;1.50;;;;;;;;;;4963988;28;88827;-68
2023/12/29 06:38:19;;;;;;;4.03;1.30;;;;;;;;;;4964099;28;87646;-74
2023/12/29 06:40:47;;;;;;;6.50;2.57;;;;;;;;;;4969012;28;90119;-71
2023/12/29 06:43:17;;;;;;;5.67;1.73;;;;;;;;;;4961683;28;91459;-67
2023/12/29 06:45:46;;;;;;;4.20;1.80;;;;;;;;;;4961857;28;88802;-68
2023/12/29 06:48:14;;;;;;;3.10;1.67;;;;;;;;;;4961759;28;87368;-69
2023/12/29 06:50:43;;;;;;;2.90;1.80;;;;;;;;;;4966844;28;89615;-69
2023/12/29 06:53:12;;;;;;;2.50;1.47;;;;;;;;;;4979562;28;87938;-72
2023/12/29 06:55:40;;;;;;;9.13;1.53;;;;;;;;;;4957915;28;89029;-67
2023/12/29 06:58:09;;;;;;;5.37;1.97;;;;;;;;;;4964600;28;87678;-69
2023/12/29 07:00:38;;;;;;;1.60;1.43;;;;;;;;;;4961460;28;90216;-69
2023/12/29 07:03:09;;;;;;;2.73;1.50;;;;;;;;;;4960143;28;90691;-69
2023/12/29 07:05:38;;;;;;;2.40;1.63;;;;;;;;;;4961321;28;89068;-70
2023/12/29 07:08:06;;;;;;;2.70;1.57;;;;;;;;;;4961197;28;87871;-69
2023/12/29 07:10:34;;;;;;;2.83;1.53;;;;;;;;;;4979213;28;89658;-69
2023/12/29 07:13:03;;;;;;;6.50;1.87;;;;;;;;;;4981419;28;89126;-69
2023/12/29 07:15:31;;;;;;;4.63;1.70;;;;;;;;;;4975018;28;88867;-69
2023/12/29 07:18:01;;;;;;;2.07;1.67;;;;;;;;;;4961049;28;87604;-71
2023/12/29 07:20:30;;;;;;;10.73;2.53;;;;;;;;;;4958605;28;89749;-71
2023/12/29 07:22:59;;;;;;;5.67;1.83;;;;;;;;;;4962394;28;89189;-71
2023/12/29 07:25:29;;;;;;;1.10;1.00;;;;;;;;;;4965211;28;88932;-70
2023/12/29 07:27:57;;;;;;;2.40;1.57;;;;;;;;;;4963329;28;87391;-71
2023/12/29 07:30:26;;;;;;;5.20;1.67;;;;;;;;;;4962638;28;88513;-72
2023/12/29 07:32:55;;;;;;;1.60;1.10;;;;;;;;;;4966917;28;89048;-70
2023/12/29 07:35:25;;;;;;;3.53;1.90;;;;;;;;;;4968387;28;88647;-71
2023/12/29 07:37:53;;;;;;;8.57;1.87;;;;;;;;;;4964736;28;87623;-72
2023/12/29 07:40:23;;;;;;;2.73;1.50;;;;;;;;;;4971901;28;90047;-68
2023/12/29 07:42:52;;;;;;;2.80;1.63;;;;;;;;;;4967815;28;89393;-68
2023/12/29 07:45:21;;;;;;;6.10;1.50;;;;;;;;;;4963012;28;88896;-67
2023/12/29 07:47:49;;;;;;;4.03;1.63;;;;;;;;;;4963703;28;89242;-66
2023/12/29 07:50:18;;;;;;;2.30;1.70;;;;;;;;;;4966552;28;89662;-69
2023/12/29 07:52:50;;;;;;;7.87;2.60;;;;;;;;;;4983593;28;91929;-68
2023/12/29 07:55:18;;;;;;;3.80;1.60;;;;;;;;;;4971884;28;89062;-68
2023/12/29 07:57:48;;;;;;;6.83;1.97;;;;;;;;;;4963748;28;87885;-69
2023/12/29 08:00:16;;;;;;;5.37;1.87;;;;;;;;;;4970953;28;89754;-68
2023/12/29 08:02:45;;;;;;;6.53;1.77;;;;;;;;;;4983097;28;89088;-69
2023/12/29 08:05:15;;;;;;;2.03;1.40;;;;;;;;;;4983099;28;88979;-68
2023/12/29 08:07:43;;;;;;;5.13;1.47;;;;;;;;;;4980580;28;87640;-69
2023/12/29 08:10:13;;;;;;;6.10;1.73;;;;;;;;;;4964646;28;89563;-69
2023/12/29 08:12:41;;;;;;;1.90;1.20;;;;;;;;;;4980531;28;90017;-69
2023/12/29 08:15:11;;;;;;;2.10;1.30;;;;;;;;;;4983425;28;87693;-68
2023/12/29 08:17:39;;;;;;;5.90;1.60;;;;;;;;;;4983637;28;88140;-68
2023/12/29 08:20:08;;;;;;;2.17;1.20;;;;;;;;;;4978196;28;88852;-68
2023/12/29 08:22:37;;;;;;;3.07;1.37;;;;;;;;;;4959495;28;90136;-68
2023/12/29 08:25:06;;;;;;;2.70;1.60;;;;;;;;;;4963527;28;89823;-68
2023/12/29 08:27:36;;;;;;;3.90;1.60;;;;;;;;;;4963968;28;87694;-68
2023/12/29 08:30:06;;;;;;;1.93;1.13;;;;;;;;;;4963907;28;88359;-68
2023/12/29 08:32:34;;;;;;;2.97;1.30;;;;;;;;;;4972134;28;89213;-69
2023/12/29 08:35:03;;;;;;;2.47;1.47;;;;;;;;;;4980882;28;88895;-68
2023/12/29 08:37:33;;;;;;;2.40;1.10;;;;;;;;;;4983232;28;87420;-68
2023/12/29 08:40:01;;;;;;;1.50;1.00;;;;;;;;;;4965214;28;89579;-68
2023/12/29 08:42:30;;;;;;;3.83;1.20;;;;;;;;;;4962818;28;89554;-68
2023/12/29 08:45:01;;;;;;;1.30;1.20;;;;;;;;;;4964447;28;88419;-68
2023/12/29 08:47:29;;;;;;;3.50;1.67;;;;;;;;;;4962327;28;87920;-68
2023/12/29 08:49:57;;;;;;;2.43;1.17;;;;;;;;;;4962311;28;90014;-68
2023/12/29 08:52:26;;;;;;;2.67;2.00;;;;;;;;;;4964416;28;89149;-68
2023/12/29 08:54:55;;;;;;;4.10;1.40;;;;;;;;;;4981225;28;87408;-67
2023/12/29 08:57:23;;;;;;;2.67;1.13;;;;;;;;;;4982806;28;87140;-68
2023/12/29 08:59:52;;;;;;;4.23;1.40;;;;;;;;;;4982570;28;88545;-67
2023/12/29 09:02:22;;;;;;;1.97;1.10;;;;;;;;;;4982384;28;88856;-68
2023/12/29 09:04:50;;;;;;;3.77;1.40;;;;;;;;;;4966248;28;88821;-67
2023/12/29 09:07:19;;;;;;;1.43;1.27;;;;;;;;;;4946736;28;87481;-68
2023/12/29 09:09:49;;;;;;;4.60;1.60;;;;;;;;;;4955338;28;89696;-67
2023/12/29 09:12:17;;;;;;;1.97;1.10;;;;;;;;;;4962518;28;90178;-68
2023/12/29 09:14:46;;;;;;;2.47;1.37;;;;;;;;;;4962188;28;88418;-68
2023/12/29 09:17:14;;;;;;;2.37;1.37;;;;;;;;;;4962150;28;87485;-68
2023/12/29 09:19:44;;;;;;;2.30;1.73;;;;;;;;;;4961768;28;89706;-68
2023/12/29 09:22:18;;;;;;;2.97;1.97;;;;;;;;;;4963155;28;89538;-68
2023/12/29 09:24:47;;;;;;;2.67;2.03;;;;;;;;;;4961892;28;88829;-68
2023/12/29 09:27:17;;;;;;;2.83;2.00;;;;;;;;;;4961716;28;87520;-69
2023/12/29 09:29:45;;;;;;;2.37;1.77;;;;;;;;;;4961736;28;89691;-68
2023/12/29 09:32:13;;;;;;;1.83;1.60;;;;;;;;;;4966886;28;89185;-68
2023/12/29 09:34:42;;;;;;;2.73;1.80;;;;;;;;;;4981867;28;88930;-68
2023/12/29 09:37:12;;;;;;;5.67;2.57;;;;;;;;;;4980007;28;87913;-68
2023/12/29 09:39:40;;;;;;;3.50;2.13;;;;;;;;;;4981406;28;89868;-67
2023/12/29 09:42:09;;;;;;;3.10;1.70;;;;;;;;;;4980408;28;89096;-68
2023/12/29 09:44:37;;;;;;;2.40;2.20;;;;;;;;;;4961885;28;88961;-67
2023/12/29 09:47:06;;;;;;;4.13;1.77;;;;;;;;;;4963217;28;87528;-67
2023/12/29 09:49:36;;;;;;;5.37;2.47;;;;;;;;;;4962150;28;89727;-68
2023/12/29 09:52:05;;;;;;;4.17;2.10;;;;;;;;;;4961839;28;88596;-69
2023/12/29 09:54:35;;;;;;;5.77;2.30;;;;;;;;;;4961538;28;89007;-68
2023/12/29 09:57:04;;;;;;;4.67;2.43;;;;;;;;;;4962714;28;87607;-68
2023/12/29 09:59:32;;;;;;;5.57;1.90;;;;;;;;;;4961461;28;89717;-68
2023/12/29 10:02:02;;;;;;;5.10;2.27;;;;;;;;;;4961034;28;90227;-68
2023/12/29 10:04:30;;;;;;;3.37;2.33;;;;;;;;;;4980942;28;89928;-68
2023/12/29 10:06:59;;;;;;;4.90;2.50;;;;;;;;;;4978855;28;87595;-69
2023/12/29 10:09:27;;;;;;;2.20;1.83;;;;;;;;;;4962600;28;89685;-68
2023/12/29 10:11:57;;;;;;;4.57;2.57;;;;;;;;;;4961497;28;88750;-67
2023/12/29 10:14:26;;;;;;;2.33;1.77;;;;;;;;;;4969016;28;89250;-67
2023/12/29 10:16:55;;;;;;;2.17;1.77;;;;;;;;;;4972944;28;87755;-68
2023/12/29 10:19:25;;;;;;;1.70;1.40;;;;;;;;;;4962398;28;89619;-68
2023/12/29 10:21:55;;;;;;;2.40;2.07;;;;;;;;;;4961475;28;89298;-68
2023/12/29 10:24:23;;;;;;;4.23;2.07;;;;;;;;;;4941802;28;89036;-68
2023/12/29 10:26:53;;;;;;;1.80;1.57;;;;;;;;;;4977026;28;88078;-68
2023/12/29 10:29:23;;;;;;;1.43;1.33;;;;;;;;;;4979315;28;89984;-69
2023/12/29 10:31:52;;;;;;;3.67;1.83;;;;;;;;;;4980031;28;89101;-68
2023/12/29 10:34:28;;;;;;;4.70;2.37;;;;;;;;;;4980709;28;88728;-68
2023/12/29 10:36:56;;;;;;;2.27;1.50;;;;;;;;;;4981470;28;87581;-69
2023/12/29 10:39:25;;;;;;;2.93;1.93;;;;;;;;;;4965192;28;89770;-69
2023/12/29 10:41:55;;;;;;;5.30;1.67;;;;;;;;;;4960300;28;89403;-69
2023/12/29 10:44:25;;;;;;;2.60;2.33;;;;;;;;;;4959786;28;92169;-70
2023/12/29 10:46:53;;;;;;;3.47;2.20;;;;;;;;;;4964223;28;89449;-71
2023/12/29 10:49:21;;;;;;;1.47;1.30;;;;;;;;;;4980867;28;88348;-70
2023/12/29 10:51:50;;;;;;;2.30;2.10;;;;;;;;;;4970074;28;90311;-70
2023/12/29 10:54:21;;;;;;;3.67;2.20;;;;;;;;;;4961546;28;89442;-70
2023/12/29 10:56:52;;;;;;;2.97;2.23;;;;;;;;;;4961469;28;87631;-71
2023/12/29 10:59:21;;;;;;;2.27;1.77;;;;;;;;;;4960868;28;89584;-70
2023/12/29 11:01:53;;;;;;;3.93;2.33;;;;;;;;;;4961335;28;89141;-70
2023/12/29 11:04:23;;;;;;;3.70;2.67;;;;;;;;;;4961011;28;88893;-70
2023/12/29 11:06:52;;;;;;;3.87;2.27;;;;;;;;;;4961333;28;87718;-69
2023/12/29 11:09:28;;;;;;;2.87;2.07;;;;;;;;;;4959947;28;88720;-70
2023/12/29 11:11:57;;;;;;;3.33;2.00;;;;;;;;;;4973175;28;89483;-70
2023/12/29 11:14:26;;;;;;;3.70;2.37;;;;;;;;;;4980079;28;88840;-71
2023/12/29 11:16:55;;;;;;;5.00;2.50;;;;;;;;;;4961161;28;87799;-70
2023/12/29 11:19:24;;;;;;;3.17;2.03;;;;;;;;;;4960910;28;90022;-70
2023/12/29 11:21:53;;;;;;;2.90;2.00;;;;;;;;;;4959926;28;89331;-70
2023/12/29 11:24:25;;;;;;;3.17;2.17;;;;;;;;;;4961129;28;87480;-70
2023/12/29 11:27:05;;;;;;;2.73;2.30;;;;;;;;;;4961150;28;87622;-70
2023/12/29 11:29:33;;;;;;;7.30;2.20;;;;;;;;;;4960503;28;89601;-71
2023/12/29 11:32:03;;;;;;;2.47;1.70;;;;;;;;;;4959643;28;89834;-70
2023/12/29 11:34:35;;;;;;;5.87;2.80;;;;;;;;;;4962776;28;88939;-69
2023/12/29 11:37:06;;;;;;;2.00;1.80;;;;;;;;;;4959136;28;87517;-70
2023/12/29 11:39:38;;;;;;;3.37;2.53;;;;;;;;;;4975046;28;89707;-69
2023/12/29 11:42:10;;;;;;;5.90;2.70;;;;;;;;;;4971442;28;90137;-66
2023/12/29 11:44:38;;;;;;;2.77;2.10;;;;;;;;;;4969294;28;89712;-70
2023/12/29 11:47:08;;;;;;;8.33;2.93;;;;;;;;;;4968296;28;87501;-66
2023/12/29 11:49:51;;;;;;;12.27;2.87;;;;;;;;;;4960620;28;89576;-66
2023/12/29 11:52:33;;;;;;;3.67;2.43;;;;;;;;;;4956602;28;89015;-67
2023/12/29 11:55:08;;;;;;;2.67;2.27;;;;;;;;;;4958668;28;88871;-66
2023/12/29 11:57:38;;;;;;;6.90;3.20;;;;;;;;;;4963552;28;87545;-66
2023/12/29 12:00:07;;;;;;;4.43;3.20;;;;;;;;;;4941349;28;89680;-66
2023/12/29 12:02:37;;;;;;;7.30;2.93;;;;;;;;;;4964052;28;88069;-66
2023/12/29 12:05:07;;;;;;;10.27;3.20;;;;;;;;;;4980285;28;88953;-66
2023/12/29 12:07:54;;;;;;;2.93;2.37;;;;;;;;;;4977504;28;87909;-66
2023/12/29 12:10:33;;;;;;;4.97;2.47;;;;;;;;;;4961373;28;89619;-66
2023/12/29 12:13:02;;;;;;;5.60;3.37;;;;;;;;;;4979216;28;89168;-67
2023/12/29 12:15:34;;;;;;;74.40;37.10;;;;;;;;;;4968802;28;88820;-67
2023/12/29 12:18:07;;;;;;;233.97;123.60;;;;;;;;;;4961848;28;87221;-67
2023/12/29 12:20:36;;;;;;;195.40;106.30;;;;;;;;;;4962064;28;89599;-67
2023/12/29 12:23:05;;;;;;;103.80;57.17;;;;;;;;;;4962137;28;89126;-65
2023/12/29 12:25:34;;;;;;;118.10;57.00;;;;;;;;;;4961799;28;88813;-66
2023/12/29 12:28:04;;;;;;;117.80;50.50;;;;;;;;;;4968302;28;87614;-65
2023/12/29 12:30:34;;;;;;;88.97;48.57;;;;;;;;;;4965687;28;89830;-66
2023/12/29 12:33:04;;;;;;;112.33;50.07;;;;;;;;;;4961421;28;90087;-67
2023/12/29 12:35:35;;;;;;;78.17;42.20;;;;;;;;;;4962205;28;88805;-67
2023/12/29 12:38:10;;;;;;;68.47;35.47;;;;;;;;;;4962891;28;87459;-67
2023/12/29 12:40:39;;;;;;;62.33;34.47;;;;;;;;;;4970758;28;89900;-67
2023/12/29 12:43:07;;;;;;;47.70;28.90;;;;;;;;;;4981476;28;88112;-67
2023/12/29 12:45:36;;;;;;;43.67;26.83;;;;;;;;;;4965570;28;89501;-67
2023/12/29 12:48:12;;;;;;;58.20;24.07;;;;;;;;;;4960903;28;87611;-66
2023/12/29 12:50:45;;;;;;;48.40;23.47;;;;;;;;;;4959712;28;89868;-67
2023/12/29 12:53:19;;;;;;;37.63;21.37;;;;;;;;;;4962167;28;89199;-67
2023/12/29 12:55:49;;;;;;;44.83;21.17;;;;;;;;;;4961857;28;89112;-67
2023/12/29 12:58:18;;;;;;;37.77;20.03;;;;;;;;;;4969316;28;87956;-67
2023/12/29 13:00:47;;;;;;;26.87;15.33;;;;;;;;;;4962516;28;89607;-67
2023/12/29 13:03:20;;;;;;;33.00;16.07;;;;;;;;;;4961601;28;89096;-67
2023/12/29 13:05:50;;;;;;;28.27;15.43;;;;;;;;;;4962243;28;88012;-67
2023/12/29 13:08:18;;;;;;;22.87;12.20;;;;;;;;;;4942280;28;87478;-67
2023/12/29 13:11:01;;;;;;;19.20;12.70;;;;;;;;;;4953040;28;89762;-67
2023/12/29 13:13:37;;;;;;;18.97;11.93;;;;;;;;;;4961898;28;89191;-67
2023/12/29 13:16:05;;;;;;;15.57;10.17;;;;;;;;;;4962074;28;89343;-67
2023/12/29 13:18:34;;;;;;;24.57;11.90;;;;;;;;;;4961503;28;87626;-67
2023/12/29 13:21:04;;;;;;;15.73;8.73;;;;;;;;;;4961277;28;89739;-67
2023/12/29 13:23:33;;;;;;;20.10;10.17;;;;;;;;;;4961549;28;88876;-67
2023/12/29 13:26:03;;;;;;;14.20;8.73;;;;;;;;;;4965106;28;89776;-66
2023/12/29 13:28:32;;;;;;;13.87;7.50;;;;;;;;;;4975519;28;87688;-67
2023/12/29 13:31:03;;;;;;;12.73;6.57;;;;;;;;;;4962714;28;89688;-67
2023/12/29 13:33:34;;;;;;;16.67;7.07;;;;;;;;;;4942485;28;89162;-67
2023/12/29 13:36:07;;;;;;;13.20;6.87;;;;;;;;;;4943096;28;88937;-67
2023/12/29 13:38:36;;;;;;;11.40;6.03;;;;;;;;;;4975982;28;87517;-67
2023/12/29 13:41:05;;;;;;;12.67;5.77;;;;;;;;;;4979587;28;89698;-66
2023/12/29 13:43:34;;;;;;;10.17;5.90;;;;;;;;;;4973734;28;89207;-67
2023/12/29 13:46:03;;;;;;;10.10;5.73;;;;;;;;;;4981487;28;88839;-66
2023/12/29 13:48:31;;;;;;;11.80;5.37;;;;;;;;;;4980657;28;88313;-67
2023/12/29 13:51:00;;;;;;;12.07;6.20;;;;;;;;;;4981448;28;89658;-67
2023/12/29 13:53:30;;;;;;;10.63;5.63;;;;;;;;;;4973634;28;92783;-67
2023/12/29 13:56:07;;;;;;;12.00;6.40;;;;;;;;;;4977657;28;88865;-68
2023/12/29 13:58:35;;;;;;;11.60;6.23;;;;;;;;;;4961734;28;87599;-67
2023/12/29 14:01:05;;;;;;;10.87;6.27;;;;;;;;;;4961289;28;89624;-67
2023/12/29 14:03:34;;;;;;;13.73;6.77;;;;;;;;;;4961716;28;89938;-68
2023/12/29 14:06:02;;;;;;;6.70;5.20;;;;;;;;;;4961988;28;91720;-64
2023/12/29 14:08:34;;;;;;;15.23;7.20;;;;;;;;;;4962907;28;87456;-65
2023/12/29 14:11:08;;;;;;;7.70;5.10;;;;;;;;;;4974472;28;90114;-65
2023/12/29 14:13:36;;;;;;;11.97;5.90;;;;;;;;;;4962513;28;90201;-65
2023/12/29 14:16:06;;;;;;;11.93;6.03;;;;;;;;;;4962802;28;89912;-65
2023/12/29 14:18:49;;;;;;;9.07;5.33;;;;;;;;;;4960235;28;87689;-65
2023/12/29 14:21:28;;;;;;;11.40;6.77;;;;;;;;;;4941189;28;88485;-65
2023/12/29 14:24:02;;;;;;;9.40;6.00;;;;;;;;;;4951245;28;89218;-65
2023/12/29 14:26:30;;;;;;;11.60;6.60;;;;;;;;;;4961519;28;88973;-64
2023/12/29 14:29:06;;;;;;;12.33;6.87;;;;;;;;;;4962072;28;87605;-65
2023/12/29 14:31:34;;;;;;;14.37;6.60;;;;;;;;;;4961772;28;89665;-65
2023/12/29 14:34:03;;;;;;;8.23;6.13;;;;;;;;;;4966343;28;88105;-65
2023/12/29 14:36:31;;;;;;;12.60;6.20;;;;;;;;;;4968408;28;88071;-65
2023/12/29 14:39:01;;;;;;;14.83;7.70;;;;;;;;;;4972590;28;87905;-65
2023/12/29 14:41:29;;;;;;;10.97;6.67;;;;;;;;;;4961946;28;89549;-65
2023/12/29 14:43:58;;;;;;;11.00;6.83;;;;;;;;;;4961267;28;89163;-65
2023/12/29 14:46:26;;;;;;;9.97;6.50;;;;;;;;;;4961289;28;87800;-65
2023/12/29 14:48:55;;;;;;;11.00;6.83;;;;;;;;;;4961032;28;87656;-65
2023/12/29 14:51:23;;;;;;;10.60;6.53;;;;;;;;;;4962214;28;89802;-65